»·PEaware :: N875NA KAPA-KFMN

N875NA :: KAPA-KFMN

FLIGHT INFORMATION

Flight Status: Arrived
Operator: Privately registered:
United States
More flights under this callsign
Pilot: Skye D. (10623)
Aircraft: ECLIPSE 500
(EA50)
More flights by this aircraft type
Origin: KAPA Centennial
United States
Destination: KFMN Four Corners Regl
United States
More flights between these airports :: More routes between these airports
Route: PIKES9 ALS RSK
File this flight plan on PilotEdge
Remarks:
Altitude:
(Current/Filed)
30,000ft
Speed:
(Current/Filed)
367kts
Departed: 22-Feb-18 02:21 PM
Arrived: 22-Feb-18 03:31 PM
Distance/Time
Traveled:
233nm/1:10
Distance/Time
To Go:
Arrived

Flight Plot

Page will automatically refresh every two minutes.

Flight plan parsing failed; only flown route is shown


Map Options




Map Legend


Flown Route
Filed Route
Departure Airport
Arrival Airport
Navaid (VOR, NDB)
Fix

Horizontal Profiles

Position Reports

Time Latitude Longitude Heading Altitude Ground
Speed
22-Feb-18 14:04 39.578671 -104.848764 90 5885ft 0kts
22-Feb-18 14:05 39.578671 -104.848764 90 5885ft 0kts
22-Feb-18 14:06 39.578671 -104.848764 90 5885ft 0kts
22-Feb-18 14:07 39.578671 -104.848764 90 5885ft 0kts
22-Feb-18 14:08 39.578671 -104.848764 90 5885ft 0kts
22-Feb-18 14:09 39.578671 -104.848764 90 5885ft 0kts
22-Feb-18 14:10 39.578671 -104.848764 90 5885ft 0kts
22-Feb-18 14:11 39.578671 -104.848764 90 5885ft 0kts
22-Feb-18 14:12 39.578671 -104.848764 90 5885ft 0kts
22-Feb-18 14:13 39.578671 -104.848764 90 5885ft 0kts
22-Feb-18 14:14 39.578671 -104.848764 90 5885ft 0kts
22-Feb-18 14:15 39.578671 -104.848764 90 5885ft 0kts
22-Feb-18 14:16 39.578671 -104.848764 90 5885ft 0kts
22-Feb-18 14:17 39.578671 -104.848762 89 5885ft 0kts
22-Feb-18 14:18 39.579051 -104.849231 272 5885ft 0kts
22-Feb-18 14:19 39.579054 -104.849295 273 5885ft 3kts
22-Feb-18 14:20 39.576657 -104.849704 177 5885ft 20kts
22-Feb-18 14:21 39.572371 -104.849504 176 5885ft 22kts
22-Feb-18 14:22 39.568413 -104.849342 178 5885ft 20kts
22-Feb-18 14:23 39.563879 -104.849121 177 5885ft 25kts
22-Feb-18 14:24 39.558605 -104.848836 178 5885ft 20kts
22-Feb-18 14:25 39.556968 -104.848833 195 5885ft 0kts
22-Feb-18 14:26 39.556749 -104.849460 274 5885ft 0kts
22-Feb-18 14:27 39.557516 -104.850309 1 5885ft 0kts
22-Feb-18 14:28 39.576444 -104.851729 5 6402ft 130kts
22-Feb-18 14:29 39.593561 -104.802007 103 7500ft 211kts
22-Feb-18 14:30 39.561119 -104.729138 122 8012ft 261kts
22-Feb-18 14:31 39.497521 -104.704883 187 8775ft 271kts
22-Feb-18 14:32 39.428897 -104.715010 187 9965ft 293kts
22-Feb-18 14:33 39.347048 -104.727459 187 9972ft 302kts
22-Feb-18 14:34 39.266606 -104.741383 203 10362ft 294kts
22-Feb-18 14:35 39.230401 -104.816020 246 11645ft 292kts
22-Feb-18 14:36 39.200427 -104.906611 244 12793ft 294kts
22-Feb-18 14:37 39.170589 -104.991869 244 13756ft 295kts
22-Feb-18 14:38 39.133858 -105.064412 208 14527ft 300kts
22-Feb-18 14:39 39.067717 -105.104886 207 15819ft 290kts
22-Feb-18 14:40 39.003249 -105.143378 207 16668ft 294kts
22-Feb-18 14:41 38.939151 -105.181268 207 17421ft 297kts
22-Feb-18 14:42 38.877039 -105.217809 207 18085ft 300kts
22-Feb-18 14:43 38.814858 -105.254290 207 18710ft 302kts
22-Feb-18 14:44 38.747066 -105.294000 207 19313ft 304kts
22-Feb-18 14:45 38.672024 -105.337697 208 20175ft 298kts
22-Feb-18 14:46 38.605414 -105.376510 209 22274ft 259kts
22-Feb-18 14:47 38.539118 -105.409379 201 23235ft 264kts
22-Feb-18 14:48 38.470619 -105.432712 202 24313ft 255kts
22-Feb-18 14:49 38.402104 -105.456444 201 25079ft 257kts
22-Feb-18 14:50 38.333650 -105.480042 201 25858ft 258kts
22-Feb-18 14:51 38.267033 -105.502931 202 27085ft 239kts
22-Feb-18 14:52 38.205328 -105.524138 203 28130ft 230kts
22-Feb-18 14:53 38.143825 -105.545322 203 28834ft 230kts
22-Feb-18 14:54 38.084964 -105.565530 203 29428ft 231kts
22-Feb-18 14:55 38.024594 -105.586214 203 29917ft 234kts
22-Feb-18 14:56 37.961658 -105.607662 202 29928ft 247kts
22-Feb-18 14:57 37.894710 -105.630448 202 29934ft 256kts
22-Feb-18 14:58 37.825820 -105.653935 202 29995ft 263kts
22-Feb-18 14:59 37.754415 -105.678777 201 30009ft 271kts
22-Feb-18 15:00 37.681423 -105.703670 202 30008ft 275kts
22-Feb-18 15:01 37.609712 -105.728015 202 30006ft 277kts
22-Feb-18 15:02 37.536505 -105.752754 202 30003ft 278kts
22-Feb-18 15:03 37.461948 -105.777910 202 30002ft 281kts
22-Feb-18 15:04 37.390085 -105.802077 202 30001ft 282kts
22-Feb-18 15:05 37.341160 -105.858840 243 29999ft 278kts
22-Feb-18 15:06 37.318917 -105.939769 245 29997ft 279kts
22-Feb-18 15:07 37.297230 -106.022814 245 29996ft 280kts
22-Feb-18 15:08 37.275759 -106.106427 245 29994ft 280kts
22-Feb-18 15:09 37.255634 -106.185097 245 29993ft 280kts
22-Feb-18 15:10 37.233739 -106.270615 245 29991ft 276kts
22-Feb-18 15:11 37.213383 -106.349906 245 29837ft 279kts
22-Feb-18 15:12 37.194311 -106.423933 246 28977ft 277kts
22-Feb-18 15:13 37.175977 -106.494952 246 28138ft 275kts
22-Feb-18 15:14 37.156334 -106.570823 247 27083ft 274kts
22-Feb-18 15:15 37.140132 -106.633224 247 25978ft 270kts
22-Feb-18 15:16 37.118313 -106.718471 248 24281ft 266kts
22-Feb-18 15:17 37.101530 -106.781866 246 22828ft 268kts
22-Feb-18 15:18 37.073767 -106.870167 247 20762ft 264kts
22-Feb-18 15:19 37.053583 -106.934547 247 19232ft 261kts
22-Feb-18 15:20 37.025493 -107.024078 247 17080ft 260kts
22-Feb-18 15:21 37.005280 -107.088362 247 15536ft 261kts
22-Feb-18 15:22 36.980155 -107.168051 248 13630ft 267kts
22-Feb-18 15:23 36.953488 -107.252414 248 12049ft 270kts
22-Feb-18 15:24 36.926093 -107.338882 247 12015ft 271kts
22-Feb-18 15:25 36.898338 -107.426140 247 12006ft 270kts
22-Feb-18 15:26 36.872820 -107.506162 247 12007ft 248kts
22-Feb-18 15:27 36.847271 -107.585682 247 10944ft 245kts
22-Feb-18 15:28 36.821632 -107.662475 248 10029ft 241kts
22-Feb-18 15:29 36.800018 -107.735149 248 10009ft 219kts
22-Feb-18 15:30 36.779263 -107.804006 246 10001ft 221kts
22-Feb-18 15:31 36.757327 -107.870123 246 10001ft 221kts
22-Feb-18 15:32 36.747657 -107.941732 266 9809ft 223kts
22-Feb-18 15:33 36.746000 -108.016234 268 8687ft 219kts
22-Feb-18 15:34 36.744559 -108.083747 270 7671ft 204kts
22-Feb-18 15:35 36.743374 -108.140324 268 6762ft 160kts
22-Feb-18 15:36 36.742359 -108.180953 267 6101ft 112kts
22-Feb-18 15:37 36.741651 -108.216093 268 5572ft 110kts
22-Feb-18 15:38 36.740926 -108.229188 182 5508ft 7kts
22-Feb-18 15:39 36.740293 -108.227722 170 5508ft 7kts
22-Feb-18 15:40 36.739718 -108.226806 267 5508ft 0kts
22-Feb-18 15:41 36.739718 -108.226806 267 5508ft 0kts
22-Feb-18 15:42 36.739718 -108.226806 267 5508ft 0kts

Navigation Log

Ident Type
Flight plan parsing failed, navigation log unavailable